sensor_id;sensor_type;location;lat;lon;timestamp;P1;durP1;ratioP1;P2;durP2;ratioP2
86247;SDS011;77436;53.138;8.636;2024-03-22T17:49:08;23.400000;;;6.100000;;
86247;SDS011;77436;53.138;8.636;2024-03-22T17:50:28;30.300000;;;6.500000;;
86247;SDS011;77436;53.138;8.636;2024-03-22T17:51:07;18.800000;;;5.900000;;
86247;SDS011;77436;53.138;8.636;2024-03-22T17:52:02;16.000000;;;5.300000;;
86247;SDS011;77436;53.138;8.636;2024-03-22T17:53:07;18.600000;;;5.000000;;
86247;SDS011;77436;53.138;8.636;2024-03-22T17:54:01;26.400000;;;6.600000;;
86247;SDS011;77436;53.138;8.636;2024-03-22T17:54:57;20.800000;;;6.100000;;
86247;SDS011;77436;53.138;8.636;2024-03-22T17:55:53;24.500000;;;5.100000;;
86247;SDS011;77436;53.138;8.636;2024-03-22T17:56:49;18.200000;;;5.300000;;
86247;SDS011;77436;53.138;8.636;2024-03-22T17:59:36;23.700000;;;4.900000;;
86247;SDS011;77436;53.138;8.636;2024-03-22T18:00:48;26.300000;;;5.800000;;
86247;SDS011;77436;53.138;8.636;2024-03-22T18:01:26;18.500000;;;4.900000;;
86247;SDS011;77436;53.138;8.636;2024-03-22T18:02:22;19.700000;;;6.100000;;
86247;SDS011;77436;53.138;8.636;2024-03-22T18:03:25;19.900000;;;4.800000;;
86247;SDS011;77436;53.138;8.636;2024-03-22T18:04:18;23.000000;;;5.200000;;
86247;SDS011;77436;53.138;8.636;2024-03-22T18:05:14;24.900000;;;5.600000;;
86247;SDS011;77436;53.138;8.636;2024-03-22T18:06:14;24.900000;;;6.600000;;
86247;SDS011;77436;53.138;8.636;2024-03-22T18:07:12;18.800000;;;5.800000;;
86247;SDS011;77436;53.138;8.636;2024-03-22T18:08:03;31.600000;;;7.000000;;
86247;SDS011;77436;53.138;8.636;2024-03-22T18:08:59;18.000000;;;5.300000;;
86247;SDS011;77436;53.138;8.636;2024-03-22T18:09:58;22.000000;;;5.800000;;
86247;SDS011;77436;53.138;8.636;2024-03-22T18:11:15;18.300000;;;5.100000;;
86247;SDS011;77436;53.138;8.636;2024-03-22T18:12:05;26.200000;;;5.700000;;
86247;SDS011;77436;53.138;8.636;2024-03-22T18:12:58;25.400000;;;5.500000;;
86247;SDS011;77436;53.138;8.636;2024-03-22T18:13:57;12.500000;;;4.900000;;
86247;SDS011;77436;53.138;8.636;2024-03-22T18:14:56;26.500000;;;6.300000;;
86247;SDS011;77436;53.138;8.636;2024-03-22T18:15:53;27.500000;;;5.600000;;
86247;SDS011;77436;53.138;8.636;2024-03-22T18:16:45;20.100000;;;5.600000;;
86247;SDS011;77436;53.138;8.636;2024-03-22T18:17:45;25.600000;;;5.300000;;
86247;SDS011;77436;53.138;8.636;2024-03-22T18:18:41;23.800000;;;6.800000;;
86247;SDS011;77436;53.138;8.636;2024-03-22T18:19:44;21.900000;;;5.200000;;
86247;SDS011;77436;53.138;8.636;2024-03-22T18:20:46;24.800000;;;5.400000;;
86247;SDS011;77436;53.138;8.636;2024-03-22T18:21:39;19.600000;;;6.000000;;
86247;SDS011;77436;53.138;8.636;2024-03-22T18:22:35;22.200000;;;5.600000;;
86247;SDS011;77436;53.138;8.636;2024-03-22T18:23:31;15.800000;;;5.100000;;
86247;SDS011;77436;53.138;8.636;2024-03-22T18:24:37;14.900000;;;3.800000;;
86247;SDS011;77436;53.138;8.636;2024-03-22T18:25:42;20.900000;;;4.600000;;
86247;SDS011;77436;53.138;8.636;2024-03-22T18:26:32;30.400000;;;5.700000;;
86247;SDS011;77436;53.138;8.636;2024-03-22T18:27:28;19.800000;;;4.500000;;
86247;SDS011;77436;53.138;8.636;2024-03-22T18:28:31;23.400000;;;5.000000;;
86247;SDS011;77436;53.138;8.636;2024-03-22T18:29:21;21.500000;;;4.500000;;
86247;SDS011;77436;53.138;8.636;2024-03-22T18:30:21;22.500000;;;4.800000;;
86247;SDS011;77436;53.138;8.636;2024-03-22T18:31:20;16.500000;;;4.200000;;
86247;SDS011;77436;53.138;8.636;2024-03-22T18:32:13;19.400000;;;4.000000;;
86247;SDS011;77436;53.138;8.636;2024-03-22T18:33:15;14.600000;;;3.900000;;
86247;SDS011;77436;53.138;8.636;2024-03-22T18:34:08;19.800000;;;3.900000;;
86247;SDS011;77436;53.138;8.636;2024-03-22T18:35:31;18.000000;;;5.800000;;
86247;SDS011;77436;53.138;8.636;2024-03-22T18:36:04;18.400000;;;4.100000;;
86247;SDS011;77436;53.138;8.636;2024-03-22T18:36:59;25.100000;;;5.300000;;
86247;SDS011;77436;53.138;8.636;2024-03-22T18:37:55;25.400000;;;5.900000;;
86247;SDS011;77436;53.138;8.636;2024-03-22T18:38:51;21.100000;;;5.200000;;
86247;SDS011;77436;53.138;8.636;2024-03-22T18:39:53;20.400000;;;5.000000;;
86247;SDS011;77436;53.138;8.636;2024-03-22T18:40:47;24.100000;;;4.600000;;
86247;SDS011;77436;53.138;8.636;2024-03-22T18:41:43;18.700000;;;4.900000;;
86247;SDS011;77436;53.138;8.636;2024-03-22T18:42:40;37.400000;;;5.600000;;
86247;SDS011;77436;53.138;8.636;2024-03-22T18:43:35;18.100000;;;4.900000;;
86247;SDS011;77436;53.138;8.636;2024-03-22T18:44:37;24.200000;;;5.400000;;
86247;SDS011;77436;53.138;8.636;2024-03-22T18:45:27;23.200000;;;4.800000;;
86247;SDS011;77436;53.138;8.636;2024-03-22T18:46:23;14.500000;;;4.700000;;
86247;SDS011;77436;53.138;8.636;2024-03-22T18:47:37;25.700000;;;5.000000;;
86247;SDS011;77436;53.138;8.636;2024-03-22T18:48:15;17.200000;;;4.500000;;
86247;SDS011;77436;53.138;8.636;2024-03-22T18:49:11;20.200000;;;4.300000;;
86247;SDS011;77436;53.138;8.636;2024-03-22T18:50:07;20.700000;;;5.300000;;
86247;SDS011;77436;53.138;8.636;2024-03-22T18:51:04;19.800000;;;4.500000;;
86247;SDS011;77436;53.138;8.636;2024-03-22T18:52:05;25.700000;;;5.200000;;
86247;SDS011;77436;53.138;8.636;2024-03-22T18:52:55;27.100000;;;4.900000;;
86247;SDS011;77436;53.138;8.636;2024-03-22T18:53:57;25.100000;;;4.600000;;
86247;SDS011;77436;53.138;8.636;2024-03-22T18:54:54;21.800000;;;4.900000;;
86247;SDS011;77436;53.138;8.636;2024-03-22T18:55:43;14.600000;;;4.500000;;
86247;SDS011;77436;53.138;8.636;2024-03-22T18:56:39;12.600000;;;3.400000;;
86247;SDS011;77436;53.138;8.636;2024-03-22T18:57:41;22.000000;;;4.700000;;
86247;SDS011;77436;53.138;8.636;2024-03-22T18:58:37;22.500000;;;5.700000;;
86247;SDS011;77436;53.138;8.636;2024-03-22T18:59:33;13.500000;;;3.500000;;
86247;SDS011;77436;53.138;8.636;2024-03-22T19:00:42;18.400000;;;3.800000;;
86247;SDS011;77436;53.138;8.636;2024-03-22T19:01:32;13.900000;;;3.600000;;
86247;SDS011;77436;53.138;8.636;2024-03-22T19:02:34;22.200000;;;4.300000;;
86247;SDS011;77436;53.138;8.636;2024-03-22T19:03:24;15.000000;;;4.500000;;
86247;SDS011;77436;53.138;8.636;2024-03-22T19:04:24;20.300000;;;4.200000;;
86247;SDS011;77436;53.138;8.636;2024-03-22T19:05:20;17.300000;;;5.000000;;
86247;SDS011;77436;53.138;8.636;2024-03-22T19:06:16;28.300000;;;4.600000;;
86247;SDS011;77436;53.138;8.636;2024-03-22T19:07:17;26.800000;;;5.100000;;
86247;SDS011;77436;53.138;8.636;2024-03-22T19:08:09;20.300000;;;6.700000;;
86247;SDS011;77436;53.138;8.636;2024-03-22T19:09:12;17.600000;;;4.700000;;
86247;SDS011;77436;53.138;8.636;2024-03-22T19:10:08;24.400000;;;4.900000;;
86247;SDS011;77436;53.138;8.636;2024-03-22T19:11:00;17.100000;;;3.900000;;
86247;SDS011;77436;53.138;8.636;2024-03-22T19:12:00;16.900000;;;3.600000;;
86247;SDS011;77436;53.138;8.636;2024-03-22T19:12:56;14.700000;;;3.500000;;
86247;SDS011;77436;53.138;8.636;2024-03-22T19:13:59;25.200000;;;4.200000;;
86247;SDS011;77436;53.138;8.636;2024-03-22T19:14:55;21.800000;;;4.900000;;
86247;SDS011;77436;53.138;8.636;2024-03-22T19:15:53;19.600000;;;3.800000;;
86247;SDS011;77436;53.138;8.636;2024-03-22T19:17:05;14.200000;;;4.000000;;
86247;SDS011;77436;53.138;8.636;2024-03-22T19:17:46;22.900000;;;3.200000;;
86247;SDS011;77436;53.138;8.636;2024-03-22T19:18:51;19.500000;;;4.300000;;
86247;SDS011;77436;53.138;8.636;2024-03-22T19:19:45;21.000000;;;4.300000;;
86247;SDS011;77436;53.138;8.636;2024-03-22T19:20:38;29.900000;;;5.100000;;
86247;SDS011;77436;53.138;8.636;2024-03-22T19:21:43;25.600000;;;4.800000;;
86247;SDS011;77436;53.138;8.636;2024-03-22T19:22:34;30.300000;;;4.100000;;
86247;SDS011;77436;53.138;8.636;2024-03-22T19:23:32;18.700000;;;4.200000;;
86247;SDS011;77436;53.138;8.636;2024-03-22T19:24:32;17.200000;;;4.300000;;
86247;SDS011;77436;53.138;8.636;2024-03-22T19:25:33;18.100000;;;4.000000;;
86247;SDS011;77436;53.138;8.636;2024-03-22T19:26:24;27.300000;;;5.000000;;
86247;SDS011;77436;53.138;8.636;2024-03-22T19:27:20;25.600000;;;4.500000;;
86247;SDS011;77436;53.138;8.636;2024-03-22T19:28:22;10.100000;;;3.500000;;
86247;SDS011;77436;53.138;8.636;2024-03-22T19:29:19;16.000000;;;3.400000;;
86247;SDS011;77436;53.138;8.636;2024-03-22T19:30:14;19.100000;;;3.800000;;
86247;SDS011;77436;53.138;8.636;2024-03-22T19:31:10;24.000000;;;3.600000;;
86247;SDS011;77436;53.138;8.636;2024-03-22T19:32:15;12.800000;;;3.700000;;
86247;SDS011;77436;53.138;8.636;2024-03-22T19:33:15;17.200000;;;3.300000;;
86247;SDS011;77436;53.138;8.636;2024-03-22T19:34:05;18.500000;;;4.400000;;
86247;SDS011;77436;53.138;8.636;2024-03-22T19:35:01;19.200000;;;3.400000;;
86247;SDS011;77436;53.138;8.636;2024-03-22T19:35:57;21.100000;;;4.100000;;
86247;SDS011;77436;53.138;8.636;2024-03-22T19:36:53;23.700000;;;4.100000;;
86247;SDS011;77436;53.138;8.636;2024-03-22T19:37:49;13.200000;;;3.300000;;
86247;SDS011;77436;53.138;8.636;2024-03-22T19:38:45;22.900000;;;4.100000;;
86247;SDS011;77436;53.138;8.636;2024-03-22T19:39:44;14.900000;;;2.900000;;
86247;SDS011;77436;53.138;8.636;2024-03-22T19:40:47;20.800000;;;4.300000;;
86247;SDS011;77436;53.138;8.636;2024-03-22T19:42:01;16.000000;;;4.000000;;
86247;SDS011;77436;53.138;8.636;2024-03-22T19:42:47;18.900000;;;3.200000;;
86247;SDS011;77436;53.138;8.636;2024-03-22T19:43:55;15.900000;;;3.300000;;
86247;SDS011;77436;53.138;8.636;2024-03-22T19:44:33;18.800000;;;3.100000;;
86247;SDS011;77436;53.138;8.636;2024-03-22T19:45:35;14.100000;;;4.600000;;
86247;SDS011;77436;53.138;8.636;2024-03-22T19:46:25;22.200000;;;4.900000;;
86247;SDS011;77436;53.138;8.636;2024-03-22T19:47:21;14.300000;;;4.600000;;
86247;SDS011;77436;53.138;8.636;2024-03-22T19:48:21;22.000000;;;3.100000;;
86247;SDS011;77436;53.138;8.636;2024-03-22T19:49:17;16.200000;;;3.800000;;
86247;SDS011;77436;53.138;8.636;2024-03-22T19:50:13;27.500000;;;3.500000;;
86247;SDS011;77436;53.138;8.636;2024-03-22T19:51:15;18.300000;;;3.400000;;
86247;SDS011;77436;53.138;8.636;2024-03-22T19:52:08;21.300000;;;3.700000;;
86247;SDS011;77436;53.138;8.636;2024-03-22T19:53:02;16.400000;;;4.000000;;
86247;SDS011;77436;53.138;8.636;2024-03-22T19:54:04;22.100000;;;3.800000;;
86247;SDS011;77436;53.138;8.636;2024-03-22T19:54:57;19.000000;;;3.300000;;
86247;SDS011;77436;53.138;8.636;2024-03-22T19:55:56;17.600000;;;3.100000;;
86247;SDS011;77436;53.138;8.636;2024-03-22T19:56:49;19.900000;;;3.900000;;
86247;SDS011;77436;53.138;8.636;2024-03-22T19:57:45;16.600000;;;3.700000;;
86247;SDS011;77436;53.138;8.636;2024-03-22T19:58:41;19.300000;;;5.400000;;
86247;SDS011;77436;53.138;8.636;2024-03-22T19:59:37;18.800000;;;3.300000;;
86247;SDS011;77436;53.138;8.636;2024-03-22T20:00:33;14.200000;;;2.900000;;
86247;SDS011;77436;53.138;8.636;2024-03-22T20:01:29;11.600000;;;3.200000;;
86247;SDS011;77436;53.138;8.636;2024-03-22T20:02:25;18.400000;;;3.400000;;
86247;SDS011;77436;53.138;8.636;2024-03-22T20:03:22;18.800000;;;3.200000;;
86247;SDS011;77436;53.138;8.636;2024-03-22T20:04:17;23.500000;;;4.100000;;
86247;SDS011;77436;53.138;8.636;2024-03-22T20:05:23;22.100000;;;3.600000;;
86247;SDS011;77436;53.138;8.636;2024-03-22T20:06:16;19.100000;;;3.700000;;
86247;SDS011;77436;53.138;8.636;2024-03-22T20:07:14;14.800000;;;2.800000;;
86247;SDS011;77436;53.138;8.636;2024-03-22T20:08:08;14.800000;;;3.500000;;
86247;SDS011;77436;53.138;8.636;2024-03-22T20:09:13;14.300000;;;2.700000;;
86247;SDS011;77436;53.138;8.636;2024-03-22T20:10:21;16.600000;;;3.400000;;
86247;SDS011;77436;53.138;8.636;2024-03-22T20:11:00;16.900000;;;2.600000;;
86247;SDS011;77436;53.138;8.636;2024-03-22T20:12:02;13.500000;;;3.100000;;
86247;SDS011;77436;53.138;8.636;2024-03-22T20:12:51;21.600000;;;3.400000;;
86247;SDS011;77436;53.138;8.636;2024-03-22T20:13:51;15.500000;;;2.700000;;
86247;SDS011;77436;53.138;8.636;2024-03-22T20:14:50;21.500000;;;3.400000;;
86247;SDS011;77436;53.138;8.636;2024-03-22T20:15:53;15.600000;;;2.200000;;
86247;SDS011;77436;53.138;8.636;2024-03-22T20:16:53;22.600000;;;2.800000;;
86247;SDS011;77436;53.138;8.636;2024-03-22T20:17:55;18.900000;;;2.600000;;
86247;SDS011;77436;53.138;8.636;2024-03-22T20:18:57;20.200000;;;3.200000;;
86247;SDS011;77436;53.138;8.636;2024-03-22T20:19:47;17.300000;;;3.000000;;
86247;SDS011;77436;53.138;8.636;2024-03-22T20:20:44;12.900000;;;3.300000;;
86247;SDS011;77436;53.138;8.636;2024-03-22T20:21:42;11.800000;;;2.700000;;
86247;SDS011;77436;53.138;8.636;2024-03-22T20:22:44;11.800000;;;2.800000;;
86247;SDS011;77436;53.138;8.636;2024-03-22T20:23:34;13.000000;;;2.100000;;
86247;SDS011;77436;53.138;8.636;2024-03-22T20:24:30;16.300000;;;2.600000;;
86247;SDS011;77436;53.138;8.636;2024-03-22T20:25:26;14.800000;;;3.200000;;
86247;SDS011;77436;53.138;8.636;2024-03-22T20:26:22;13.700000;;;2.500000;;
86247;SDS011;77436;53.138;8.636;2024-03-22T20:27:18;14.900000;;;3.000000;;
86247;SDS011;77436;53.138;8.636;2024-03-22T20:28:14;13.500000;;;1.900000;;
86247;SDS011;77436;53.138;8.636;2024-03-22T20:29:14;11.900000;;;2.300000;;
86247;SDS011;77436;53.138;8.636;2024-03-22T20:30:20;15.700000;;;2.600000;;
86247;SDS011;77436;53.138;8.636;2024-03-22T20:31:10;13.000000;;;2.100000;;
86247;SDS011;77436;53.138;8.636;2024-03-22T20:32:06;8.600000;;;2.200000;;
86247;SDS011;77436;53.138;8.636;2024-03-22T20:33:02;9.400000;;;1.200000;;
86247;SDS011;77436;53.138;8.636;2024-03-22T20:33:58;7.500000;;;1.600000;;
86247;SDS011;77436;53.138;8.636;2024-03-22T20:34:57;11.400000;;;2.200000;;
86247;SDS011;77436;53.138;8.636;2024-03-22T20:35:53;4.700000;;;1.300000;;
86247;SDS011;77436;53.138;8.636;2024-03-22T20:36:49;6.500000;;;2.200000;;
86247;SDS011;77436;53.138;8.636;2024-03-22T20:37:55;11.300000;;;2.500000;;
